Terminal Aerodrome Forecast
Issued by NWS Albany, NY

Home | Current Version | Previous Version | Text Only | Print | Product List | Glossary On
Versions: 1 2 3 4 5 6 7 8 9 10 11 12 13 14 15 16 17
282
FTUS41 KALY 051409 AAA
TAFPOU
TAF AMD
KPOU 051409Z 0514/0612 17004KT P6SM OVC015
     FM051600 23005KT P6SM SCT015 OVC025
     FM051800 28007KT P6SM OVC035
     FM060000 31004KT P6SM BKN035=

USA.gov is the U.S. government's official web portal to all federal, state and local government web resources and services.